Time;durP1;ratioP1;P1;durP2;ratioP2;P2;SDS_P1;SDS_P2;PMS_P1;PMS_P2;Temp;Humidity;BMP_temperature;BMP_pressure;BME280_temperature;BME280_humidity;BME280_pressure;Samples;Min_cycle;Max_cycle;Signal;HPM_P1;HPM_P2
2022/03/18 00:02:08;;;;;;;10.53;4.77;;;8.70;99.90;;;;;;5012689;28;20188;-74
2022/03/18 00:04:33;;;;;;;7.97;3.97;;;8.70;99.90;;;;;;5015806;28;20211;-74
2022/03/18 00:06:59;;;;;;;9.80;4.87;;;8.60;99.90;;;;;;5016608;28;20196;-74
2022/03/18 00:09:25;;;;;;;9.20;4.63;;;8.60;99.90;;;;;;5012501;28;20203;-75
2022/03/18 00:11:50;;;;;;;6.43;3.73;;;8.60;99.90;;;;;;5013873;28;20180;-73
2022/03/18 00:14:16;;;;;;;7.83;4.03;;;8.60;99.90;;;;;;5016892;28;20215;-72
2022/03/18 00:16:41;;;;;;;6.70;5.23;;;8.50;99.90;;;;;;5021062;28;20190;-72
2022/03/18 00:19:07;;;;;;;7.17;4.93;;;8.50;99.90;;;;;;5016395;28;20212;-69
2022/03/18 00:21:36;;;;;;;8.57;4.97;;;8.50;99.90;;;;;;5013707;28;20276;-71
2022/03/18 00:24:03;;;;;;;5.33;4.47;;;8.50;99.90;;;;;;5013172;28;20212;-72
2022/03/18 00:26:29;;;;;;;8.67;4.37;;;8.60;99.90;;;;;;5020294;28;20251;-73
2022/03/18 00:28:55;;;;;;;8.53;4.43;;;8.60;99.90;;;;;;5018008;28;20829;-70
2022/03/18 00:31:20;;;;;;;6.53;4.13;;;8.60;99.90;;;;;;5016202;28;20203;-71
2022/03/18 00:33:45;;;;;;;11.27;4.43;;;8.60;99.90;;;;;;5019430;28;20192;-72
2022/03/18 00:36:11;;;;;;;6.90;3.90;;;8.60;99.90;;;;;;5019627;28;20246;-72
2022/03/18 00:38:36;;;;;;;6.27;3.90;;;8.50;99.90;;;;;;5018996;28;20195;-72
2022/03/18 00:41:02;;;;;;;8.17;4.33;;;8.50;99.90;;;;;;5016538;28;20212;-75
2022/03/18 00:43:28;;;;;;;5.97;5.40;;;8.40;99.90;;;;;;5014189;28;20576;-75
2022/03/18 00:45:53;;;;;;;7.90;4.40;;;8.50;99.90;;;;;;5013808;28;20572;-74
2022/03/18 00:53:47;;;;;;;6.60;4.30;;;8.50;99.90;;;;;;5016588;28;20246;-74
2022/03/18 00:56:12;;;;;;;4.50;3.50;;;8.50;99.90;;;;;;5018335;28;20188;-74
2022/03/18 00:58:38;;;;;;;9.77;4.57;;;8.50;99.90;;;;;;5021514;28;20200;-72
2022/03/18 01:01:04;;;;;;;9.40;4.60;;;8.60;99.90;;;;;;5015629;28;20728;-73
2022/03/18 01:03:29;;;;;;;7.27;4.50;;;8.60;99.90;;;;;;5014986;28;20783;-73
2022/03/18 01:05:55;;;;;;;11.90;4.77;;;8.60;99.90;;;;;;5016131;28;20853;-76
2022/03/18 01:08:20;;;;;;;12.67;5.23;;;8.60;99.90;;;;;;5012853;28;20188;-74
2022/03/18 01:10:46;;;;;;;6.90;4.53;;;8.60;99.90;;;;;;5010055;28;20226;-74
2022/03/18 01:13:11;;;;;;;11.30;4.50;;;8.60;99.90;;;;;;4999351;28;20199;-77
2022/03/18 01:15:37;;;;;;;12.23;5.07;;;8.50;99.90;;;;;;5014035;28;20204;-76
2022/03/18 01:18:03;;;;;;;9.70;3.93;;;8.30;99.90;;;;;;5019108;28;20196;-76
2022/03/18 01:20:29;;;;;;;13.30;5.27;;;8.40;99.90;;;;;;5003008;28;20298;-77
2022/03/18 01:22:55;;;;;;;9.83;4.60;;;8.40;99.90;;;;;;5019419;28;20389;-76
2022/03/18 01:25:20;;;;;;;8.03;3.93;;;8.40;99.90;;;;;;5016320;28;20590;-75
2022/03/18 01:27:46;;;;;;;14.60;4.73;;;8.40;99.90;;;;;;5020398;28;20188;-74
2022/03/18 01:30:13;;;;;;;9.30;4.00;;;8.20;99.90;;;;;;5016145;28;20203;-76
2022/03/18 01:32:39;;;;;;;8.67;4.10;;;8.20;99.90;;;;;;5013246;28;20670;-76
2022/03/18 01:35:05;;;;;;;9.17;4.23;;;8.30;99.90;;;;;;5017250;28;20723;-76
2022/03/18 01:37:31;;;;;;;9.47;4.13;;;8.30;99.90;;;;;;5022866;28;20330;-73
2022/03/18 01:39:56;;;;;;;8.27;3.77;;;8.20;99.90;;;;;;5019458;28;20211;-73
2022/03/18 01:42:21;;;;;;;11.43;4.30;;;8.10;99.90;;;;;;5021510;28;20196;-74
2022/03/18 01:44:47;;;;;;;6.87;3.53;;;8.00;99.90;;;;;;5022857;28;20243;-74
2022/03/18 01:47:13;;;;;;;10.03;3.47;;;8.00;99.90;;;;;;5019241;28;20200;-76
2022/03/18 01:49:39;;;;;;;8.37;3.60;;;8.20;99.90;;;;;;5014492;28;20528;-74
2022/03/18 01:52:06;;;;;;;9.27;3.80;;;8.10;99.90;;;;;;5014246;28;20265;-75
2022/03/18 01:54:44;;;;;;;6.47;3.73;;;8.20;99.90;;;;;;5017606;28;20675;-72
2022/03/18 01:57:10;;;;;;;8.70;3.83;;;8.30;99.90;;;;;;5024839;28;20192;-73
2022/03/18 01:59:36;;;;;;;5.97;3.83;;;8.30;99.90;;;;;;5012900;28;20209;-73
2022/03/18 02:02:01;;;;;;;6.10;3.27;;;8.30;99.90;;;;;;5014128;28;20193;-74
2022/03/18 02:04:27;;;;;;;10.77;3.60;;;8.30;99.90;;;;;;5017356;28;20637;-73
2022/03/18 02:06:53;;;;;;;8.07;3.37;;;8.10;99.90;;;;;;5020723;28;20274;-74
2022/03/18 02:09:20;;;;;;;6.20;3.63;;;8.10;99.90;;;;;;5007286;28;20298;-74
2022/03/18 02:11:46;;;;;;;8.70;3.20;;;8.20;99.90;;;;;;5022790;28;20538;-74
2022/03/18 02:14:12;;;;;;;6.20;2.70;;;8.20;99.90;;;;;;5017303;28;20249;-74
2022/03/18 02:16:39;;;;;;;7.10;3.47;;;8.20;99.90;;;;;;5012992;28;20248;-74
2022/03/18 02:19:06;;;;;;;10.07;3.17;;;8.30;99.90;;;;;;5019853;28;20210;-73
2022/03/18 02:21:35;;;;;;;9.90;3.47;;;8.30;99.90;;;;;;5018948;28;20230;-72
2022/03/18 02:24:00;;;;;;;8.90;3.37;;;8.20;99.90;;;;;;5015086;28;20215;-75
2022/03/18 02:26:26;;;;;;;6.77;3.10;;;8.30;99.90;;;;;;5010318;28;20242;-74
2022/03/18 02:28:52;;;;;;;5.53;3.33;;;8.30;99.90;;;;;;5010510;28;20295;-72
2022/03/18 02:31:19;;;;;;;10.57;3.53;;;8.30;99.90;;;;;;5018813;28;20485;-73
2022/03/18 02:33:44;;;;;;;5.37;2.40;;;8.10;99.90;;;;;;5007163;28;20275;-73
2022/03/18 02:36:10;;;;;;;9.60;3.33;;;8.20;99.90;;;;;;5018287;28;20723;-73
2022/03/18 02:38:35;;;;;;;6.03;2.53;;;8.20;99.90;;;;;;5019925;28;20199;-71
2022/03/18 02:41:00;;;;;;;8.50;2.93;;;8.30;99.90;;;;;;5011714;28;20204;-72
2022/03/18 02:43:26;;;;;;;8.30;3.37;;;8.30;99.90;;;;;;5008627;28;20231;-72
2022/03/18 02:45:51;;;;;;;9.70;2.97;;;8.30;99.90;;;;;;5015909;28;20292;-73
2022/03/18 02:48:17;;;;;;;7.97;3.20;;;8.30;99.90;;;;;;5019490;28;20192;-76
2022/03/18 02:50:42;;;;;;;9.87;3.20;;;8.10;99.90;;;;;;5012996;28;20206;-71
2022/03/18 02:53:08;;;;;;;8.63;3.10;;;8.20;99.90;;;;;;5000442;28;20183;-72
2022/03/18 02:55:33;;;;;;;18.23;3.03;;;8.20;99.90;;;;;;5017562;28;20196;-75
2022/03/18 02:57:59;;;;;;;7.07;3.47;;;8.20;99.90;;;;;;5023416;28;20191;-77
2022/03/18 03:00:25;;;;;;;5.30;2.83;;;8.20;99.90;;;;;;5006525;28;20200;-74
2022/03/18 03:02:51;;;;;;;6.33;2.53;;;8.20;99.90;;;;;;5016395;28;20204;-76
2022/03/18 03:08:01;;;;;;;8.67;3.10;;;8.30;99.90;;;;;;5016971;28;20299;-76
2022/03/18 03:10:36;;;;;;;7.20;2.90;;;8.30;99.90;;;;;;5010791;28;20705;-76
2022/03/18 03:13:06;;;;;;;8.00;3.00;;;8.30;99.90;;;;;;5012710;28;20676;-76
2022/03/18 03:15:32;;;;;;;8.97;2.83;;;8.20;99.90;;;;;;5011760;28;20298;-75
2022/03/18 03:17:58;;;;;;;7.33;2.87;;;8.30;99.90;;;;;;5012229;28;20224;-74
2022/03/18 03:20:23;;;;;;;11.43;3.20;;;8.20;99.90;;;;;;5009567;28;20199;-75
2022/03/18 03:22:49;;;;;;;6.67;2.43;;;8.20;99.90;;;;;;5015016;28;20195;-76
2022/03/18 03:25:15;;;;;;;12.37;3.03;;;8.10;99.90;;;;;;5008266;28;20216;-77
2022/03/18 03:27:40;;;;;;;5.30;2.43;;;8.10;99.90;;;;;;5017235;28;20214;-73
2022/03/18 03:30:08;;;;;;;8.53;2.63;;;8.00;99.90;;;;;;5004843;28;20204;-76
2022/03/18 03:32:34;;;;;;;10.27;3.50;;;8.00;99.90;;;;;;5007002;28;20223;-76
2022/03/18 03:34:59;;;;;;;7.97;2.70;;;8.00;99.90;;;;;;5016385;28;20681;-76
2022/03/18 03:37:26;;;;;;;8.73;2.87;;;8.10;99.90;;;;;;5012497;28;20196;-75
2022/03/18 03:39:52;;;;;;;9.10;3.03;;;8.10;99.90;;;;;;5014035;28;20194;-75
2022/03/18 03:42:19;;;;;;;9.10;2.87;;;8.20;99.90;;;;;;5011839;28;20716;-73
2022/03/18 03:44:44;;;;;;;7.07;2.80;;;8.20;99.90;;;;;;5010211;28;20207;-76
2022/03/18 03:47:10;;;;;;;6.97;2.60;;;8.10;99.90;;;;;;5005277;28;20251;-76
2022/03/18 03:49:35;;;;;;;8.50;3.03;;;8.20;99.90;;;;;;5013020;28;20596;-77
2022/03/18 03:52:01;;;;;;;9.47;2.87;;;8.20;99.90;;;;;;5004706;28;20613;-76
2022/03/18 03:54:29;;;;;;;10.47;3.70;;;8.20;99.90;;;;;;5013589;28;20217;-78
2022/03/18 03:56:55;;;;;;;10.90;3.03;;;8.10;99.90;;;;;;5019942;28;20561;-78
2022/03/18 03:59:21;;;;;;;11.10;2.80;;;8.00;99.90;;;;;;5018823;28;20187;-80
2022/03/18 04:01:47;;;;;;;12.37;2.30;;;8.00;99.90;;;;;;5012774;28;20202;-77
2022/03/18 04:04:12;;;;;;;10.77;2.63;;;8.10;99.90;;;;;;5015535;28;20231;-76
2022/03/18 04:06:38;;;;;;;10.13;4.73;;;8.10;99.90;;;;;;5014304;28;20208;-77
2022/03/18 04:09:04;;;;;;;7.43;2.27;;;8.00;99.90;;;;;;5014970;28;20208;-77
2022/03/18 04:11:30;;;;;;;9.27;3.03;;;8.00;99.90;;;;;;5025274;28;20249;-76
2022/03/18 04:13:55;;;;;;;7.10;2.60;;;8.10;99.90;;;;;;5009391;28;20776;-77
2022/03/18 04:16:21;;;;;;;13.67;2.63;;;8.10;99.90;;;;;;5023243;28;20350;-77
2022/03/18 04:18:47;;;;;;;8.93;2.53;;;8.10;99.90;;;;;;5005400;28;20569;-77
2022/03/18 04:21:13;;;;;;;7.70;2.33;;;8.10;99.90;;;;;;5022327;28;20196;-76
2022/03/18 04:23:39;;;;;;;9.07;3.77;;;8.20;99.90;;;;;;5010121;28;20216;-76
2022/03/18 04:26:05;;;;;;;9.17;2.93;;;8.10;99.90;;;;;;5023626;28;20232;-77
2022/03/18 04:28:30;;;;;;;8.83;2.40;;;8.10;99.90;;;;;;5006267;28;20204;-75
2022/03/18 04:30:56;;;;;;;9.17;2.10;;;8.10;99.90;;;;;;5011049;28;20202;-76
2022/03/18 04:33:21;;;;;;;4.20;2.17;;;8.00;99.90;;;;;;5005145;28;20206;-76
2022/03/18 04:35:47;;;;;;;14.20;3.60;;;8.10;99.90;;;;;;5027497;28;20199;-77
2022/03/18 04:38:12;;;;;;;9.33;3.13;;;8.10;99.90;;;;;;5017753;28;20855;-76
2022/03/18 04:40:38;;;;;;;7.73;2.53;;;8.00;99.90;;;;;;5016343;28;20199;-76
2022/03/18 04:43:03;;;;;;;3.90;2.13;;;8.00;99.90;;;;;;5009941;28;20682;-76
2022/03/18 04:45:29;;;;;;;10.07;3.20;;;8.00;99.90;;;;;;5023543;28;20196;-76
2022/03/18 04:47:54;;;;;;;10.23;2.90;;;7.90;99.90;;;;;;5021343;28;20222;-77
2022/03/18 04:50:20;;;;;;;10.63;2.60;;;8.00;99.90;;;;;;5026840;28;20206;-77
2022/03/18 04:52:45;;;;;;;7.60;3.00;;;7.90;99.90;;;;;;5018962;28;20697;-76
2022/03/18 04:55:11;;;;;;;9.53;2.90;;;8.00;99.90;;;;;;5028600;28;20191;-77
2022/03/18 04:57:37;;;;;;;8.30;2.63;;;7.80;99.90;;;;;;5008432;28;20216;-77
2022/03/18 05:00:05;;;;;;;7.10;2.00;;;7.70;99.90;;;;;;5027793;28;20230;-73
2022/03/18 05:02:30;;;;;;;14.43;2.77;;;7.60;99.90;;;;;;5019393;28;20200;-75
2022/03/18 05:04:56;;;;;;;7.60;2.40;;;7.50;99.90;;;;;;5022451;28;20237;-76
2022/03/18 05:07:22;;;;;;;12.87;2.70;;;7.50;99.90;;;;;;5019431;28;20258;-76
2022/03/18 05:09:48;;;;;;;8.03;2.33;;;7.50;99.90;;;;;;5020954;28;20195;-77
2022/03/18 05:12:15;;;;;;;5.53;1.90;;;7.50;99.90;;;;;;5007936;28;20232;-76
2022/03/18 05:14:41;;;;;;;9.67;2.33;;;7.40;99.90;;;;;;5016125;28;20197;-76
2022/03/18 05:17:08;;;;;;;6.00;1.90;;;7.40;99.90;;;;;;5017359;28;20729;-76
2022/03/18 05:19:34;;;;;;;5.77;2.60;;;7.30;99.90;;;;;;5020418;28;20223;-74
2022/03/18 05:22:00;;;;;;;7.23;2.43;;;7.20;99.90;;;;;;5014249;28;20219;-75
2022/03/18 05:24:26;;;;;;;8.70;3.07;;;7.20;99.90;;;;;;5017508;28;20257;-74
2022/03/18 05:26:55;;;;;;;7.70;2.27;;;7.20;99.90;;;;;;5020541;28;20510;-75
2022/03/18 05:29:21;;;;;;;8.47;2.33;;;7.20;99.90;;;;;;5017053;28;20235;-75
2022/03/18 05:31:46;;;;;;;9.77;2.30;;;7.20;99.90;;;;;;5022005;28;20635;-74
2022/03/18 05:34:13;;;;;;;11.03;2.80;;;7.10;99.90;;;;;;5008827;28;20571;-75
2022/03/18 05:36:43;;;;;;;10.93;3.07;;;7.00;99.90;;;;;;5025306;28;20199;-75
2022/03/18 05:39:09;;;;;;;11.50;2.33;;;7.00;99.90;;;;;;5017930;28;20212;-75
2022/03/18 05:41:35;;;;;;;12.20;4.37;;;7.00;99.90;;;;;;5018902;28;20693;-73
2022/03/18 05:44:00;;;;;;;8.47;1.97;;;6.90;99.90;;;;;;5014094;28;20219;-74
2022/03/18 05:46:26;;;;;;;8.57;2.37;;;6.80;99.90;;;;;;5010245;28;20195;-74
2022/03/18 05:48:51;;;;;;;13.80;3.60;;;6.80;99.90;;;;;;5017125;28;20564;-75
2022/03/18 05:51:18;;;;;;;11.30;2.50;;;6.70;99.90;;;;;;5016791;28;20621;-75
2022/03/18 05:53:44;;;;;;;6.23;1.97;;;6.70;99.90;;;;;;5009880;28;20211;-74
2022/03/18 05:58:55;;;;;;;8.17;2.27;;;6.70;99.90;;;;;;5016012;28;20295;-74
2022/03/18 06:01:20;;;;;;;8.63;2.27;;;6.60;99.90;;;;;;5020315;28;20262;-74
2022/03/18 06:03:48;;;;;;;5.57;1.90;;;6.70;99.90;;;;;;5020959;28;20228;-74
2022/03/18 06:06:14;;;;;;;10.40;2.07;;;6.60;99.90;;;;;;5015640;28;20752;-74
2022/03/18 06:14:07;;;;;;;13.70;2.90;;;6.50;99.90;;;;;;5017234;28;20289;-73
2022/03/18 06:16:32;;;;;;;11.90;3.67;;;6.50;99.90;;;;;;5022347;28;20222;-71
2022/03/18 06:18:58;;;;;;;10.10;2.37;;;6.50;99.90;;;;;;5013658;28;20575;-72
2022/03/18 06:21:24;;;;;;;10.67;2.80;;;6.50;99.90;;;;;;5019854;28;20343;-76
2022/03/18 06:23:49;;;;;;;12.23;3.40;;;6.50;99.90;;;;;;5021344;28;20212;-76
2022/03/18 06:26:15;;;;;;;10.80;2.60;;;6.50;99.90;;;;;;5020015;28;20714;-75
2022/03/18 06:28:40;;;;;;;6.30;2.20;;;6.50;99.90;;;;;;5016469;28;20204;-75
2022/03/18 06:31:06;;;;;;;9.13;2.50;;;6.50;99.90;;;;;;5016607;28;20290;-69
2022/03/18 06:33:33;;;;;;;7.33;2.00;;;6.50;99.90;;;;;;5016905;28;20258;-69
2022/03/18 06:35:58;;;;;;;13.47;2.70;;;6.50;99.90;;;;;;5021250;28;20230;-76
2022/03/18 06:38:24;;;;;;;11.70;2.80;;;6.50;99.90;;;;;;5009789;28;20285;-74
2022/03/18 06:40:50;;;;;;;10.17;2.50;;;6.50;99.90;;;;;;5019552;28;20666;-74
2022/03/18 06:43:15;;;;;;;8.23;2.10;;;6.50;99.90;;;;;;5016134;28;20457;-72
2022/03/18 06:45:41;;;;;;;13.87;2.47;;;6.50;99.90;;;;;;5000715;28;20745;-71
2022/03/18 06:48:07;;;;;;;14.50;2.70;;;6.50;99.90;;;;;;5017337;28;20189;-71
2022/03/18 06:50:32;;;;;;;9.13;3.10;;;6.60;99.90;;;;;;5015231;28;20195;-72
2022/03/18 06:52:57;;;;;;;12.87;3.03;;;6.60;99.90;;;;;;5020533;28;20318;-72
2022/03/18 06:55:23;;;;;;;12.50;2.50;;;6.60;99.90;;;;;;5020113;28;20650;-75
2022/03/18 06:57:48;;;;;;;8.30;2.63;;;6.60;99.90;;;;;;5019249;28;20190;-75
2022/03/18 07:00:14;;;;;;;9.97;2.47;;;6.50;99.90;;;;;;5009138;28;20195;-75
2022/03/18 07:02:40;;;;;;;6.60;2.70;;;6.50;99.90;;;;;;5024425;28;20188;-75
2022/03/18 07:05:06;;;;;;;4.63;2.23;;;6.50;99.90;;;;;;5012002;28;20199;-71
2022/03/18 07:07:31;;;;;;;12.23;3.93;;;6.50;99.90;;;;;;5016671;28;20196;-75
2022/03/18 07:09:57;;;;;;;9.17;2.63;;;6.60;99.90;;;;;;5020679;28;20580;-75
2022/03/18 07:12:22;;;;;;;13.93;3.13;;;6.60;99.90;;;;;;5013893;28;20887;-75
2022/03/18 07:14:48;;;;;;;9.50;3.17;;;6.70;99.90;;;;;;5015900;28;20196;-75
2022/03/18 07:19:57;;;;;;;11.60;2.50;;;6.70;99.90;;;;;;5008441;28;20342;-75
2022/03/18 07:22:25;;;;;;;8.80;3.50;;;6.70;99.90;;;;;;5015805;28;20208;-74
2022/03/18 07:24:50;;;;;;;10.87;3.10;;;6.70;99.90;;;;;;5009971;28;20599;-74
2022/03/18 07:27:16;;;;;;;9.10;3.33;;;6.60;99.90;;;;;;5015541;28;20223;-74
2022/03/18 07:29:42;;;;;;;11.40;3.73;;;6.60;99.90;;;;;;5019023;28;20206;-73
2022/03/18 07:32:08;;;;;;;8.37;2.73;;;6.70;99.90;;;;;;5005072;28;20661;-74
2022/03/18 07:34:33;;;;;;;9.87;2.07;;;6.70;99.90;;;;;;5008226;28;20697;-74
2022/03/18 07:36:59;;;;;;;9.90;3.90;;;6.80;99.90;;;;;;5011688;28;20204;-74
2022/03/18 07:39:24;;;;;;;10.90;2.60;;;6.80;99.90;;;;;;5014758;28;20570;-74
2022/03/18 07:41:50;;;;;;;7.60;2.83;;;7.00;99.90;;;;;;5016018;28;21018;-74
2022/03/18 07:44:16;;;;;;;13.93;3.10;;;7.10;99.90;;;;;;5009626;28;20298;-73
2022/03/18 07:46:41;;;;;;;14.20;5.13;;;7.10;99.90;;;;;;5005135;28;20658;-74
2022/03/18 07:49:06;;;;;;;13.87;5.60;;;7.10;99.90;;;;;;5022346;28;20202;-73
2022/03/18 07:51:32;;;;;;;11.77;4.03;;;7.20;99.90;;;;;;5016243;28;20267;-73
2022/03/18 07:53:57;;;;;;;11.40;3.17;;;7.30;99.90;;;;;;5019850;28;20260;-74
2022/03/18 07:56:23;;;;;;;14.50;3.33;;;7.30;99.90;;;;;;5015761;28;20219;-72
2022/03/18 07:58:49;;;;;;;10.90;3.90;;;7.40;99.90;;;;;;5014545;28;20200;-73
2022/03/18 08:01:15;;;;;;;7.30;2.87;;;7.50;99.90;;;;;;5016018;28;20203;-73
2022/03/18 08:03:40;;;;;;;12.77;3.10;;;7.40;99.90;;;;;;5021238;28;20241;-76
2022/03/18 08:06:06;;;;;;;11.20;2.60;;;7.40;99.90;;;;;;5014776;28;20200;-75
2022/03/18 08:08:32;;;;;;;7.80;2.80;;;7.50;99.90;;;;;;5021599;28;20202;-73
2022/03/18 08:10:57;;;;;;;9.93;3.37;;;7.60;99.90;;;;;;5003220;28;20200;-75
2022/03/18 08:13:23;;;;;;;9.97;3.27;;;7.60;99.90;;;;;;5017655;28;20188;-75
2022/03/18 08:15:49;;;;;;;11.57;3.27;;;7.70;99.90;;;;;;5015086;28;20311;-74
2022/03/18 08:18:15;;;;;;;11.17;2.80;;;7.80;99.90;;;;;;5018379;28;20222;-73
2022/03/18 08:20:41;;;;;;;6.80;2.67;;;7.80;99.90;;;;;;5004084;28;20744;-74
2022/03/18 08:23:12;;;;;;;8.93;2.77;;;7.60;99.90;;;;;;5019083;28;20676;-75
2022/03/18 08:25:38;;;;;;;12.83;2.83;;;7.70;99.90;;;;;;5008665;28;20233;-74
2022/03/18 08:28:05;;;;;;;11.23;2.80;;;7.70;99.90;;;;;;5011642;28;20195;-74
2022/03/18 08:30:31;;;;;;;8.47;2.53;;;7.80;99.90;;;;;;5013954;28;20203;-74
2022/03/18 08:32:57;;;;;;;14.47;2.67;;;7.90;99.90;;;;;;5026015;28;20179;-74
2022/03/18 08:35:22;;;;;;;13.10;2.50;;;7.90;99.90;;;;;;5004951;28;20210;-74
2022/03/18 08:37:57;;;;;;;6.80;2.00;;;7.90;99.90;;;;;;5008993;28;20211;-74
2022/03/18 08:40:33;;;;;;;8.07;3.47;;;8.00;99.90;;;;;;5012479;28;20188;-74
2022/03/18 08:43:01;;;;;;;7.90;2.40;;;8.10;99.90;;;;;;5014159;28;20549;-74
2022/03/18 08:45:27;;;;;;;9.23;3.00;;;8.20;99.90;;;;;;5012362;28;20219;-72
2022/03/18 08:47:53;;;;;;;8.57;2.73;;;8.30;99.90;;;;;;5013435;28;20188;-73
2022/03/18 08:50:21;;;;;;;6.87;3.20;;;8.40;99.90;;;;;;5013890;28;20203;-73
2022/03/18 08:52:47;;;;;;;19.77;4.17;;;8.40;99.90;;;;;;5013594;28;20215;-73
2022/03/18 08:55:13;;;;;;;10.23;3.20;;;8.40;99.90;;;;;;5014379;28;20691;-73
2022/03/18 08:57:39;;;;;;;11.70;3.27;;;8.40;99.90;;;;;;5016304;28;20188;-73
2022/03/18 09:00:07;;;;;;;14.27;4.17;;;8.50;99.90;;;;;;5016942;28;20196;-73
2022/03/18 09:02:34;;;;;;;6.87;3.70;;;8.40;99.90;;;;;;5014976;28;20211;-73
2022/03/18 09:04:59;;;;;;;10.20;2.70;;;8.30;99.90;;;;;;5007179;28;20780;-72
2022/03/18 09:07:26;;;;;;;14.27;2.77;;;8.40;99.90;;;;;;5023630;28;20191;-72
2022/03/18 09:09:51;;;;;;;16.53;3.63;;;8.40;99.90;;;;;;5006161;28;20184;-73
2022/03/18 09:12:18;;;;;;;12.23;3.53;;;8.60;99.90;;;;;;5012449;28;20196;-72
2022/03/18 09:14:44;;;;;;;6.93;2.60;;;8.70;99.90;;;;;;5009586;28;20196;-74
2022/03/18 09:17:09;;;;;;;8.47;2.87;;;8.70;99.90;;;;;;5014569;28;20691;-72
2022/03/18 09:19:37;;;;;;;10.47;3.20;;;8.90;99.90;;;;;;5005411;28;20192;-72
2022/03/18 09:22:04;;;;;;;7.10;2.90;;;8.90;99.90;;;;;;5008428;28;20611;-72
2022/03/18 09:24:30;;;;;;;4.77;3.03;;;9.10;99.90;;;;;;5022311;28;20212;-72
2022/03/18 09:26:55;;;;;;;11.80;4.33;;;9.10;99.90;;;;;;5009916;28;20205;-73
2022/03/18 09:29:24;;;;;;;11.83;4.30;;;9.20;99.90;;;;;;5022072;28;20289;-74
2022/03/18 09:31:50;;;;;;;9.30;4.47;;;9.30;99.90;;;;;;5022620;28;20207;-74
2022/03/18 09:34:16;;;;;;;10.20;3.53;;;9.40;99.90;;;;;;5024911;28;20203;-74
2022/03/18 09:36:41;;;;;;;13.13;5.27;;;9.50;99.90;;;;;;5010063;28;20560;-75
2022/03/18 09:39:07;;;;;;;8.20;3.30;;;9.40;99.90;;;;;;5025235;28;20204;-74
2022/03/18 09:41:32;;;;;;;9.07;3.43;;;9.50;99.90;;;;;;5006982;28;20267;-75
2022/03/18 09:43:58;;;;;;;11.70;4.83;;;9.50;99.90;;;;;;5025727;28;20221;-74
2022/03/18 09:46:24;;;;;;;13.27;5.53;;;9.60;99.90;;;;;;5023469;28;20199;-74
2022/03/18 09:48:51;;;;;;;9.67;3.77;;;9.70;99.90;;;;;;5012106;28;20199;-74
2022/03/18 09:51:17;;;;;;;13.67;4.33;;;9.70;99.90;;;;;;5007144;28;20613;-79
2022/03/18 09:53:43;;;;;;;9.57;4.27;;;9.70;99.90;;;;;;5012743;28;20196;-78
2022/03/18 09:56:10;;;;;;;13.53;5.37;;;9.70;99.90;;;;;;5006974;28;20675;-75
2022/03/18 09:58:35;;;;;;;16.60;6.60;;;9.80;99.90;;;;;;5013421;28;20564;-75
2022/03/18 10:01:01;;;;;;;10.33;5.07;;;9.90;99.90;;;;;;5008074;28;20364;-80
2022/03/18 10:03:41;;;;;;;13.20;4.37;;;9.90;99.90;;;;;;5008349;28;20713;-74
2022/03/18 10:06:08;;;;;;;6.77;3.77;;;9.90;99.90;;;;;;5018055;28;20204;-75
2022/03/18 10:08:39;;;;;;;10.87;4.50;;;9.90;99.90;;;;;;5017026;28;20194;-80
2022/03/18 10:11:22;;;;;;;11.63;4.27;;;10.10;99.90;;;;;;5019697;28;20254;-74
2022/03/18 10:13:52;;;;;;;13.80;4.43;;;10.10;99.90;;;;;;5021745;28;20547;-82
2022/03/18 10:16:47;;;;;;;8.03;4.53;;;10.10;99.90;;;;;;5017109;28;20200;-76
2022/03/18 10:19:15;;;;;;;16.47;4.97;;;10.20;99.90;;;;;;5017893;28;20194;-83
2022/03/18 10:21:54;;;;;;;10.90;3.80;;;10.30;99.90;;;;;;5016324;28;20298;-81
2022/03/18 10:24:31;;;;;;;7.83;4.57;;;10.30;99.90;;;;;;5017802;28;20217;-74
2022/03/18 10:27:13;;;;;;;11.07;4.23;;;10.50;99.90;;;;;;5016239;28;20361;-81
2022/03/18 10:29:56;;;;;;;13.77;4.33;;;10.60;99.90;;;;;;5016690;28;20181;-75
2022/03/18 10:32:28;;;;;;;14.53;5.00;;;10.70;99.90;;;;;;5015947;28;20773;-75
2022/03/18 10:37:47;;;;;;;10.60;3.70;;;10.80;99.90;;;;;;5016397;28;20203;-83
2022/03/18 10:40:14;;;;;;;9.07;3.30;;;10.80;99.70;;;;;;5010885;28;20279;-77
2022/03/18 10:42:40;;;;;;;5.60;2.80;;;10.90;99.70;;;;;;5014312;28;20649;-73
2022/03/18 10:45:09;;;;;;;9.70;4.33;;;10.90;98.70;;;;;;5013511;28;20225;-72
2022/03/18 10:47:42;;;;;;;10.77;4.07;;;11.10;98.40;;;;;;5021907;28;20190;-72
2022/03/18 10:50:10;;;;;;;15.03;4.73;;;11.20;98.30;;;;;;5015796;28;20707;-70
2022/03/18 10:52:48;;;;;;;10.97;3.77;;;11.40;98.50;;;;;;5018938;28;20215;-70
2022/03/18 10:55:22;;;;;;;18.47;4.67;;;11.80;98.30;;;;;;5009159;28;20341;-70
2022/03/18 10:57:55;;;;;;;9.03;3.53;;;11.80;97.50;;;;;;5014351;28;20390;-72
2022/03/18 11:00:23;;;;;;;12.77;4.40;;;12.20;96.60;;;;;;5005995;28;20213;-71
2022/03/18 11:02:58;;;;;;;10.07;3.57;;;12.30;96.10;;;;;;5007354;28;20195;-72
2022/03/18 11:05:25;;;;;;;7.23;3.70;;;12.60;95.60;;;;;;5020077;28;20661;-70
2022/03/18 11:07:52;;;;;;;10.93;4.27;;;12.80;94.90;;;;;;5019490;28;20198;-71
2022/03/18 11:13:05;;;;;;;9.30;4.00;;;12.90;94.20;;;;;;5022391;28;20244;-72
2022/03/18 11:15:31;;;;;;;11.10;5.10;;;13.10;93.70;;;;;;5023722;28;20191;-71
2022/03/18 11:17:57;;;;;;;6.80;2.70;;;13.40;92.70;;;;;;5017948;28;20195;-72
2022/03/18 11:20:27;;;;;;;7.23;3.70;;;13.50;92.20;;;;;;5017328;28;20188;-71
2022/03/18 11:22:54;;;;;;;10.43;3.30;;;13.70;91.70;;;;;;5011986;28;20202;-72
2022/03/18 11:25:21;;;;;;;6.77;2.97;;;13.80;91.40;;;;;;5017007;28;20266;-72
2022/03/18 11:27:47;;;;;;;13.13;3.20;;;13.90;88.10;;;;;;5024096;28;20180;-70
2022/03/18 11:30:30;;;;;;;8.60;2.60;;;13.90;88.10;;;;;;5020915;28;20208;-71
2022/03/18 11:33:19;;;;;;;8.17;3.73;;;13.90;87.20;;;;;;5014433;28;20207;-71
2022/03/18 11:35:48;;;;;;;5.43;2.60;;;13.80;87.90;;;;;;5006189;28;20198;-73
2022/03/18 11:38:37;;;;;;;8.07;2.60;;;14.20;86.70;;;;;;5016002;28;20223;-73
2022/03/18 11:41:05;;;;;;;8.27;2.77;;;14.40;86.80;;;;;;5007259;28;20298;-71
2022/03/18 11:43:48;;;;;;;5.40;2.47;;;14.60;85.40;;;;;;5011577;28;20695;-70
2022/03/18 11:46:13;;;;;;;4.60;2.40;;;14.80;83.80;;;;;;5011827;28;20180;-71
2022/03/18 11:48:46;;;;;;;5.50;2.10;;;15.00;81.00;;;;;;5017088;28;20501;-71
2022/03/18 11:51:31;;;;;;;3.60;2.07;;;15.20;79.40;;;;;;5017374;28;20278;-71
2022/03/18 11:54:12;;;;;;;9.27;2.87;;;15.30;78.90;;;;;;4999526;28;20270;-71
2022/03/18 11:56:45;;;;;;;8.33;2.10;;;15.20;77.00;;;;;;5016369;28;20195;-70
2022/03/18 11:59:25;;;;;;;7.30;1.90;;;15.30;77.80;;;;;;5019004;28;20228;-72
2022/03/18 12:02:05;;;;;;;7.40;2.60;;;15.60;73.60;;;;;;5015147;28;20200;-70
2022/03/18 12:04:34;;;;;;;9.40;2.73;;;15.90;71.80;;;;;;5019295;28;20231;-70
2022/03/18 12:07:13;;;;;;;9.73;3.33;;;16.10;71.00;;;;;;5020361;28;20638;-71
2022/03/18 12:09:48;;;;;;;9.30;4.07;;;16.20;68.80;;;;;;5012218;28;20551;-70
2022/03/18 12:12:25;;;;;;;8.97;3.13;;;16.40;67.40;;;;;;5004449;28;20315;-70
2022/03/18 12:14:53;;;;;;;6.80;3.50;;;16.50;67.90;;;;;;5015180;28;20293;-74
2022/03/18 12:17:19;;;;;;;7.13;2.93;;;16.70;65.90;;;;;;5017808;28;20195;-75
2022/03/18 12:19:49;;;;;;;12.23;4.57;;;16.70;66.60;;;;;;5014367;28;20574;-64
2022/03/18 12:22:16;;;;;;;9.57;4.93;;;16.80;65.50;;;;;;5012981;28;20622;-63
2022/03/18 12:24:41;;;;;;;14.93;8.67;;;16.90;64.70;;;;;;5014642;28;20273;-63
2022/03/18 12:27:07;;;;;;;8.73;5.03;;;17.20;63.80;;;;;;5012016;28;20183;-65
2022/03/18 12:29:32;;;;;;;7.40;4.47;;;17.40;63.20;;;;;;5014901;28;20233;-65
2022/03/18 12:32:13;;;;;;;6.40;2.60;;;17.60;61.80;;;;;;5014940;28;20185;-64
2022/03/18 12:34:50;;;;;;;7.60;2.43;;;18.10;61.50;;;;;;5014454;28;20526;-64
2022/03/18 12:37:20;;;;;;;9.40;4.50;;;18.50;56.80;;;;;;5005798;28;20185;-66
2022/03/18 12:39:46;;;;;;;5.70;3.00;;;18.80;57.30;;;;;;5015049;28;20207;-64
2022/03/18 12:42:12;;;;;;;7.13;2.63;;;19.10;56.90;;;;;;5017376;28;20189;-64
2022/03/18 12:44:43;;;;;;;5.57;2.57;;;19.30;56.10;;;;;;5015823;28;20233;-64
2022/03/18 12:47:09;;;;;;;8.73;3.33;;;19.60;55.70;;;;;;5016529;28;20280;-65
2022/03/18 12:49:36;;;;;;;7.77;2.70;;;19.80;54.30;;;;;;5015782;28;20297;-64
2022/03/18 12:52:07;;;;;;;5.33;2.03;;;19.80;51.70;;;;;;5011653;28;20207;-64
2022/03/18 12:54:33;;;;;;;6.70;1.63;;;20.00;48.10;;;;;;5013545;28;20209;-64
2022/03/18 12:56:58;;;;;;;5.50;2.00;;;19.20;46.40;;;;;;5015846;28;20545;-64
2022/03/18 12:59:24;;;;;;;5.33;3.37;;;19.20;47.60;;;;;;5014439;28;20212;-63
2022/03/18 13:01:54;;;;;;;5.30;2.10;;;19.20;48.10;;;;;;5022134;28;20186;-63
2022/03/18 13:04:20;;;;;;;3.20;2.07;;;19.20;47.60;;;;;;5009598;28;20216;-63
2022/03/18 13:06:54;;;;;;;4.77;2.20;;;19.50;46.80;;;;;;5013131;28;20197;-64
2022/03/18 13:09:19;;;;;;;5.70;2.10;;;19.80;47.30;;;;;;5009347;28;20293;-63
2022/03/18 13:11:45;;;;;;;8.80;2.87;;;19.90;45.80;;;;;;5020831;28;20753;-64
2022/03/18 13:14:11;;;;;;;6.03;2.53;;;19.90;45.90;;;;;;5010497;28;20213;-64
2022/03/18 13:16:44;;;;;;;5.77;2.50;;;20.20;45.00;;;;;;5016175;28;20251;-64